RJBERJBB

Guest
Details From RJBE - Kobe
To RJBB - Kansai Intl
Flight Number -
Tags Routegen Generated
Created
Modified
Stats Distance 18 nm / 34 km
Max Altitude 100 ft / 30 m
Waypoints 5
Social Downloads 1
Likes 0
Share VATSIM

Download

Looking for another format? Having issues loading an existing format? Contact us
Advertisement - Login to hide

Notes

Departing runway 8 RJBE. Arriving runway 5 RJBB.

Route

RJBE +34.64_+135.33 +34.56_+135.33 +34.48_+135.33 RJBB

ID Type Via Altitude Latitude Longitude Leg Dist Tot Dist Heading (true) Name
O RJBE APT - 0 ft / 0 m 34.63376˚ 135.23746˚ - 0 nm - -
+34.64_+135.33 LATLON - 100 ft / 30 m 34.64054˚ 135.32502˚ 4 nm 4 nm 85° / 85° -
+34.56_+135.33 LATLON - 100 ft / 30 m 34.56171˚ 135.32600˚ 4 nm 9 nm 179° / 179° -
+34.48_+135.33 LATLON - 100 ft / 30 m 34.48287˚ 135.32698˚ 4 nm 13 nm 179° / 179° -
O RJBB APT - 0 ft / 0 m 34.43723˚ 135.25887˚ 4 nm 18 nm 231° / 231° -

Altitude Profile

Advertisement - Login to hide

RJBE

Details ICAO RJBE (UKB)
Name Kobe
Region Japan
Timezone Asia/Tokyo (UTC+9.0)
Stats Elevation 22 ft / 7 m (AMSL)
Location 34.632700° 135.223883°
Runways 1
Magnetic Variation 7.646° W

METAR

RJBE 182200Z 33004KT 9999 FEW030 BKN040 BKN050 06/01 Q1022

Decode

TAF

Not found

Departure Runways

ID Width Length Bearing (true) Bearing (mag) Surface Threshold Offset Overrun Length
09 200 ft / 61 m 8,187 ft / 2,495 m 84.58° 92.23° Asphalt 0 ft / 0 m 0 ft / 0 m
27 200 ft / 61 m 8,187 ft / 2,495 m 264.60° 272.25° Asphalt 0 ft / 0 m 0 ft / 0 m

RJBB

Details ICAO RJBB (KIX)
Name KANSAI INTL
Region Japan
Timezone Asia/Tokyo (UTC+9.0)
Stats Elevation 26 ft / 8 m (AMSL)
Location 34.433619° 135.233598°
Runways 2
Magnetic Variation 7.581° W

METAR

RJBB 182230Z 21011KT 9999 FEW030 BKN045 BKN/// 08/02 Q1023 NOSIG

Decode

TAF

TAF RJBB 181705Z 1818/2000 27013KT 9999 FEW030 SCT050 TEMPO 1902/1909 29022G33KT BECMG 1921/2000 02008KT

Decode

Destination Runways

ID Width Length Bearing (true) Bearing (mag) Surface Threshold Offset Overrun Length
06L 200 ft / 61 m 13,121 ft / 3,999 m 50.86° 58.44° Asphalt 0 ft / 0 m 200 ft / 61 m
06R 200 ft / 61 m 11,481 ft / 3,499 m 50.86° 58.44° Asphalt 0 ft / 0 m 200 ft / 61 m
24L 200 ft / 61 m 11,481 ft / 3,499 m 230.88° 238.46° Asphalt 0 ft / 0 m 200 ft / 61 m
24R 200 ft / 61 m 13,121 ft / 3,999 m 230.88° 238.46° Asphalt 0 ft / 0 m 200 ft / 61 m

Approach Navaids

Runway Type Ident Frequency Range Bearing (true) Bearing (mag) Slope Elevation
06R Localiser IKD 108.10 MHz 18 nm / 33 km 50.88° 58.46° - 26 ft / 8 m (AMSL)
06R Glidescope IKD 108.10 MHz 10 nm / 19 km 50.87° 58.45° 3.00° 54 ft / 16 m (AMSL)
06R DME IKD 108.10 MHz 18 nm / 33 km - - - 34 ft / 10 m (AMSL)
24L Localiser IKN 110.70 MHz 18 nm / 33 km 230.85° 238.43° - 26 ft / 8 m (AMSL)
24L Glidescope IKN 110.70 MHz 10 nm / 19 km 230.87° 238.45° 3.00° 36 ft / 11 m (AMSL)
24L DME IKN 110.70 MHz 18 nm / 33 km - - - 36 ft / 11 m (AMSL)

Popular Alternatives